world map with EGYH marked

EGYH - Location

This information may not be accurate or current and is not valid for navigation or flight planning. No warranty of fitness for any purpose is made or implied.

flag of Englandflag of United Kingdom

Donate via PayPal

Additional information is available on the NEW Great Circle Mapper

Location
City:  Sutton Bridge, Lincolnshire, England, United Kingdom
Name:Holbeach Range
ICAO:EGYH

Details
Latitude:52°45'N (52.750)
Longitude:0°12'E (0.200)

Time
Timezone:UTC+0 (DST+3)
Local Time:

Weather
METAR:EGYH  041350Z 25005KT 9999 BKN015 09/07 Q1014 WHT

Related Locations
Nearby:
Farthest:CHT: 11794 mi / 18980 km
Waitangi [Tuuta], CIT, NZ

Find:

   beyond  
but within

Other Information
Maps:
Sources:

  


 


Great Circle Mapper   Great Circle Mapper
Great Circle Mapper FAQ   Great Circle Mapper FAQ
  Karl's Home Page
KLSē   KLSē Home
   GC on Facebook
Airlines of the World   Airlines of the World
Donate via PayPal


Copyright © 2004-2019, Karl L. Swartz. All rights reserved.
All trademarks mentioned herein belong to their respective owners.

Please see credits for attribution and copyright information.

Karl Swartz <karl@kls2.com>
  Powered by FreeBSD
Valid HTML 4.01!
Labeled with ICRA
hCard Microformat
Geo Microformat